sensor_id;sensor_type;location;lat;lon;timestamp;P1;durP1;ratioP1;P2;durP2;ratioP2
19280;SDS011;9774;52.034;5.342;2024-01-30T00:00:11;6.82;;;5.50;;
19280;SDS011;9774;52.034;5.342;2024-01-30T00:02:41;6.97;;;6.18;;
19280;SDS011;9774;52.034;5.342;2024-01-30T00:05:08;7.70;;;6.75;;
19280;SDS011;9774;52.034;5.342;2024-01-30T00:07:35;7.53;;;6.28;;
19280;SDS011;9774;52.034;5.342;2024-01-30T00:10:02;8.77;;;7.05;;
19280;SDS011;9774;52.034;5.342;2024-01-30T00:12:31;12.07;;;7.38;;
19280;SDS011;9774;52.034;5.342;2024-01-30T00:14:58;8.35;;;6.72;;
19280;SDS011;9774;52.034;5.342;2024-01-30T00:17:25;8.18;;;6.38;;
19280;SDS011;9774;52.034;5.342;2024-01-30T00:19:54;9.45;;;6.88;;
19280;SDS011;9774;52.034;5.342;2024-01-30T00:22:21;6.60;;;5.68;;
19280;SDS011;9774;52.034;5.342;2024-01-30T00:24:48;8.82;;;6.80;;
19280;SDS011;9774;52.034;5.342;2024-01-30T00:27:15;8.38;;;6.72;;
19280;SDS011;9774;52.034;5.342;2024-01-30T00:29:42;9.13;;;7.03;;
19280;SDS011;9774;52.034;5.342;2024-01-30T00:32:09;8.52;;;6.78;;
19280;SDS011;9774;52.034;5.342;2024-01-30T00:34:36;8.15;;;6.57;;
19280;SDS011;9774;52.034;5.342;2024-01-30T00:37:04;8.82;;;6.65;;
19280;SDS011;9774;52.034;5.342;2024-01-30T00:39:32;8.52;;;6.93;;
19280;SDS011;9774;52.034;5.342;2024-01-30T00:41:59;11.43;;;7.68;;
19280;SDS011;9774;52.034;5.342;2024-01-30T00:44:26;9.10;;;7.35;;
19280;SDS011;9774;52.034;5.342;2024-01-30T00:46:53;9.57;;;6.72;;
19280;SDS011;9774;52.034;5.342;2024-01-30T00:49:20;10.82;;;7.50;;
19280;SDS011;9774;52.034;5.342;2024-01-30T00:51:47;10.45;;;6.45;;
19280;SDS011;9774;52.034;5.342;2024-01-30T00:54:15;8.20;;;6.47;;
19280;SDS011;9774;52.034;5.342;2024-01-30T00:56:42;9.57;;;6.55;;
19280;SDS011;9774;52.034;5.342;2024-01-30T00:59:10;8.93;;;6.22;;
19280;SDS011;9774;52.034;5.342;2024-01-30T01:01:37;9.23;;;6.25;;
19280;SDS011;9774;52.034;5.342;2024-01-30T01:04:04;9.10;;;7.00;;
19280;SDS011;9774;52.034;5.342;2024-01-30T01:06:32;8.65;;;6.03;;
19280;SDS011;9774;52.034;5.342;2024-01-30T01:08:59;10.63;;;6.47;;
19280;SDS011;9774;52.034;5.342;2024-01-30T01:11:29;11.00;;;6.65;;
19280;SDS011;9774;52.034;5.342;2024-01-30T01:13:56;9.77;;;6.75;;
19280;SDS011;9774;52.034;5.342;2024-01-30T01:16:23;8.57;;;6.75;;
19280;SDS011;9774;52.034;5.342;2024-01-30T01:18:50;7.78;;;6.90;;
19280;SDS011;9774;52.034;5.342;2024-01-30T01:21:17;7.88;;;6.05;;
19280;SDS011;9774;52.034;5.342;2024-01-30T01:23:44;8.20;;;6.22;;
19280;SDS011;9774;52.034;5.342;2024-01-30T01:26:11;8.77;;;6.85;;
19280;SDS011;9774;52.034;5.342;2024-01-30T01:28:40;11.00;;;6.60;;
19280;SDS011;9774;52.034;5.342;2024-01-30T01:31:07;9.05;;;6.40;;
19280;SDS011;9774;52.034;5.342;2024-01-30T01:33:35;9.02;;;6.63;;
19280;SDS011;9774;52.034;5.342;2024-01-30T01:36:03;8.35;;;6.15;;
19280;SDS011;9774;52.034;5.342;2024-01-30T01:38:31;6.90;;;6.07;;
19280;SDS011;9774;52.034;5.342;2024-01-30T01:40:58;7.35;;;5.97;;
19280;SDS011;9774;52.034;5.342;2024-01-30T01:43:25;8.93;;;6.93;;
19280;SDS011;9774;52.034;5.342;2024-01-30T01:45:54;7.82;;;6.40;;
19280;SDS011;9774;52.034;5.342;2024-01-30T01:48:21;8.40;;;5.95;;
19280;SDS011;9774;52.034;5.342;2024-01-30T01:50:48;7.88;;;5.85;;
19280;SDS011;9774;52.034;5.342;2024-01-30T01:53:15;8.43;;;6.43;;
19280;SDS011;9774;52.034;5.342;2024-01-30T01:55:42;8.45;;;6.53;;
19280;SDS011;9774;52.034;5.342;2024-01-30T01:58:10;8.65;;;5.72;;
19280;SDS011;9774;52.034;5.342;2024-01-30T02:00:38;8.32;;;6.32;;
19280;SDS011;9774;52.034;5.342;2024-01-30T02:03:08;7.35;;;6.00;;
19280;SDS011;9774;52.034;5.342;2024-01-30T02:05:38;8.85;;;5.75;;
19280;SDS011;9774;52.034;5.342;2024-01-30T02:08:07;7.40;;;5.70;;
19280;SDS011;9774;52.034;5.342;2024-01-30T02:10:35;9.05;;;6.13;;
19280;SDS011;9774;52.034;5.342;2024-01-30T02:13:02;8.15;;;6.03;;
19280;SDS011;9774;52.034;5.342;2024-01-30T02:15:29;8.57;;;6.45;;
19280;SDS011;9774;52.034;5.342;2024-01-30T02:17:56;6.63;;;5.22;;
19280;SDS011;9774;52.034;5.342;2024-01-30T02:20:25;8.45;;;5.97;;
19280;SDS011;9774;52.034;5.342;2024-01-30T02:22:58;7.10;;;5.65;;
19280;SDS011;9774;52.034;5.342;2024-01-30T02:25:30;6.60;;;5.70;;
19280;SDS011;9774;52.034;5.342;2024-01-30T02:27:59;6.97;;;5.40;;
19280;SDS011;9774;52.034;5.342;2024-01-30T02:30:26;5.90;;;5.18;;
19280;SDS011;9774;52.034;5.342;2024-01-30T02:32:53;6.63;;;5.45;;
19280;SDS011;9774;52.034;5.342;2024-01-30T02:35:20;8.88;;;5.53;;
19280;SDS011;9774;52.034;5.342;2024-01-30T02:37:47;8.07;;;5.35;;
19280;SDS011;9774;52.034;5.342;2024-01-30T02:40:16;8.88;;;5.93;;
19280;SDS011;9774;52.034;5.342;2024-01-30T02:42:43;8.93;;;5.63;;
19280;SDS011;9774;52.034;5.342;2024-01-30T02:45:10;9.45;;;5.55;;
19280;SDS011;9774;52.034;5.342;2024-01-30T02:47:39;7.47;;;5.90;;
19280;SDS011;9774;52.034;5.342;2024-01-30T02:50:07;8.98;;;5.85;;
19280;SDS011;9774;52.034;5.342;2024-01-30T02:52:35;8.40;;;5.65;;
19280;SDS011;9774;52.034;5.342;2024-01-30T02:55:02;10.60;;;6.43;;
19280;SDS011;9774;52.034;5.342;2024-01-30T02:57:31;7.43;;;5.35;;
19280;SDS011;9774;52.034;5.342;2024-01-30T02:59:59;6.88;;;5.45;;
19280;SDS011;9774;52.034;5.342;2024-01-30T03:02:26;7.95;;;5.47;;
19280;SDS011;9774;52.034;5.342;2024-01-30T03:04:53;7.63;;;5.75;;
19280;SDS011;9774;52.034;5.342;2024-01-30T03:07:20;8.85;;;6.78;;
19280;SDS011;9774;52.034;5.342;2024-01-30T03:09:47;6.95;;;5.60;;
19280;SDS011;9774;52.034;5.342;2024-01-30T03:12:14;9.80;;;5.70;;
19280;SDS011;9774;52.034;5.342;2024-01-30T03:14:42;7.38;;;6.05;;
19280;SDS011;9774;52.034;5.342;2024-01-30T03:17:09;6.95;;;5.60;;
19280;SDS011;9774;52.034;5.342;2024-01-30T03:19:37;8.20;;;5.72;;
19280;SDS011;9774;52.034;5.342;2024-01-30T03:22:04;7.55;;;5.85;;
19280;SDS011;9774;52.034;5.342;2024-01-30T03:24:31;7.40;;;5.68;;
19280;SDS011;9774;52.034;5.342;2024-01-30T03:26:58;8.13;;;6.18;;
19280;SDS011;9774;52.034;5.342;2024-01-30T03:29:25;9.32;;;6.38;;
19280;SDS011;9774;52.034;5.342;2024-01-30T03:31:53;7.68;;;5.38;;
19280;SDS011;9774;52.034;5.342;2024-01-30T03:34:20;6.90;;;5.75;;
19280;SDS011;9774;52.034;5.342;2024-01-30T03:36:47;9.88;;;5.60;;
19280;SDS011;9774;52.034;5.342;2024-01-30T03:39:14;9.07;;;5.72;;
19280;SDS011;9774;52.034;5.342;2024-01-30T03:41:42;6.93;;;5.18;;
19280;SDS011;9774;52.034;5.342;2024-01-30T03:44:09;6.97;;;5.47;;
19280;SDS011;9774;52.034;5.342;2024-01-30T03:46:36;6.72;;;5.43;;
19280;SDS011;9774;52.034;5.342;2024-01-30T03:49:05;7.95;;;5.97;;
19280;SDS011;9774;52.034;5.342;2024-01-30T03:51:32;5.95;;;5.32;;
19280;SDS011;9774;52.034;5.342;2024-01-30T03:53:59;7.57;;;5.63;;
19280;SDS011;9774;52.034;5.342;2024-01-30T03:56:26;6.30;;;5.53;;
19280;SDS011;9774;52.034;5.342;2024-01-30T03:58:53;6.95;;;4.75;;
19280;SDS011;9774;52.034;5.342;2024-01-30T04:01:21;9.73;;;4.95;;
19280;SDS011;9774;52.034;5.342;2024-01-30T04:03:48;7.97;;;5.30;;
19280;SDS011;9774;52.034;5.342;2024-01-30T04:06:16;7.10;;;5.13;;
19280;SDS011;9774;52.034;5.342;2024-01-30T04:08:43;6.60;;;5.35;;
19280;SDS011;9774;52.034;5.342;2024-01-30T04:11:10;8.75;;;5.68;;
19280;SDS011;9774;52.034;5.342;2024-01-30T04:13:37;8.13;;;5.07;;
19280;SDS011;9774;52.034;5.342;2024-01-30T04:16:05;8.13;;;5.43;;
19280;SDS011;9774;52.034;5.342;2024-01-30T04:18:32;7.07;;;4.75;;
19280;SDS011;9774;52.034;5.342;2024-01-30T04:20:59;7.90;;;5.30;;
19280;SDS011;9774;52.034;5.342;2024-01-30T04:23:28;6.03;;;4.78;;
19280;SDS011;9774;52.034;5.342;2024-01-30T04:25:55;5.82;;;4.82;;
19280;SDS011;9774;52.034;5.342;2024-01-30T04:28:22;8.30;;;5.43;;
19280;SDS011;9774;52.034;5.342;2024-01-30T04:30:49;7.15;;;4.65;;
19280;SDS011;9774;52.034;5.342;2024-01-30T04:33:16;5.43;;;4.93;;
19280;SDS011;9774;52.034;5.342;2024-01-30T04:35:43;7.00;;;4.78;;
19280;SDS011;9774;52.034;5.342;2024-01-30T04:38:10;7.50;;;5.00;;
19280;SDS011;9774;52.034;5.342;2024-01-30T04:40:38;7.60;;;5.40;;
19280;SDS011;9774;52.034;5.342;2024-01-30T04:43:05;5.93;;;4.97;;
19280;SDS011;9774;52.034;5.342;2024-01-30T04:45:32;7.93;;;5.90;;
19280;SDS011;9774;52.034;5.342;2024-01-30T04:47:59;6.93;;;4.88;;
19280;SDS011;9774;52.034;5.342;2024-01-30T04:50:26;7.35;;;4.88;;
19280;SDS011;9774;52.034;5.342;2024-01-30T04:52:53;6.07;;;4.75;;
19280;SDS011;9774;52.034;5.342;2024-01-30T04:55:20;6.30;;;5.30;;
19280;SDS011;9774;52.034;5.342;2024-01-30T04:57:49;5.95;;;4.38;;
19280;SDS011;9774;52.034;5.342;2024-01-30T05:00:16;7.35;;;5.47;;
19280;SDS011;9774;52.034;5.342;2024-01-30T05:02:43;6.22;;;4.93;;
19280;SDS011;9774;52.034;5.342;2024-01-30T05:05:10;5.85;;;4.63;;
19280;SDS011;9774;52.034;5.342;2024-01-30T05:07:38;5.90;;;4.72;;
19280;SDS011;9774;52.034;5.342;2024-01-30T05:10:07;6.28;;;4.68;;
19280;SDS011;9774;52.034;5.342;2024-01-30T05:12:35;8.00;;;4.45;;
19280;SDS011;9774;52.034;5.342;2024-01-30T05:15:04;5.20;;;4.63;;
19280;SDS011;9774;52.034;5.342;2024-01-30T05:17:32;6.70;;;5.60;;
19280;SDS011;9774;52.034;5.342;2024-01-30T05:19:59;6.82;;;5.03;;
19280;SDS011;9774;52.034;5.342;2024-01-30T05:22:26;7.50;;;4.97;;
19280;SDS011;9774;52.034;5.342;2024-01-30T05:24:53;8.18;;;5.85;;
19280;SDS011;9774;52.034;5.342;2024-01-30T05:27:20;6.05;;;4.90;;
19280;SDS011;9774;52.034;5.342;2024-01-30T05:29:47;6.07;;;4.82;;
19280;SDS011;9774;52.034;5.342;2024-01-30T05:32:16;5.90;;;5.00;;
19280;SDS011;9774;52.034;5.342;2024-01-30T05:34:43;8.90;;;5.68;;
19280;SDS011;9774;52.034;5.342;2024-01-30T05:37:10;6.18;;;5.03;;
19280;SDS011;9774;52.034;5.342;2024-01-30T05:39:39;7.07;;;5.40;;
19280;SDS011;9774;52.034;5.342;2024-01-30T05:42:06;6.68;;;5.07;;
19280;SDS011;9774;52.034;5.342;2024-01-30T05:44:33;6.95;;;5.10;;
19280;SDS011;9774;52.034;5.342;2024-01-30T05:47:00;7.90;;;4.70;;
19280;SDS011;9774;52.034;5.342;2024-01-30T05:49:29;6.57;;;4.90;;
19280;SDS011;9774;52.034;5.342;2024-01-30T05:51:56;7.68;;;5.80;;
19280;SDS011;9774;52.034;5.342;2024-01-30T05:54:23;5.97;;;4.82;;
19280;SDS011;9774;52.034;5.342;2024-01-30T05:56:50;6.18;;;4.63;;
19280;SDS011;9774;52.034;5.342;2024-01-30T05:59:17;6.95;;;5.18;;
19280;SDS011;9774;52.034;5.342;2024-01-30T06:01:45;6.03;;;4.97;;
19280;SDS011;9774;52.034;5.342;2024-01-30T06:04:12;5.43;;;4.50;;
19280;SDS011;9774;52.034;5.342;2024-01-30T06:06:41;6.32;;;4.72;;
19280;SDS011;9774;52.034;5.342;2024-01-30T06:09:08;7.30;;;5.22;;
19280;SDS011;9774;52.034;5.342;2024-01-30T06:11:35;6.90;;;4.65;;
19280;SDS011;9774;52.034;5.342;2024-01-30T06:14:02;8.27;;;5.45;;
19280;SDS011;9774;52.034;5.342;2024-01-30T06:16:29;7.05;;;5.30;;
19280;SDS011;9774;52.034;5.342;2024-01-30T06:18:56;7.70;;;4.85;;
19280;SDS011;9774;52.034;5.342;2024-01-30T06:21:24;5.95;;;4.70;;
19280;SDS011;9774;52.034;5.342;2024-01-30T06:23:52;6.30;;;4.40;;
19280;SDS011;9774;52.034;5.342;2024-01-30T06:26:19;5.38;;;4.78;;
19280;SDS011;9774;52.034;5.342;2024-01-30T06:28:46;7.55;;;5.53;;
19280;SDS011;9774;52.034;5.342;2024-01-30T06:31:13;7.82;;;4.90;;
19280;SDS011;9774;52.034;5.342;2024-01-30T06:33:40;7.85;;;5.43;;
19280;SDS011;9774;52.034;5.342;2024-01-30T06:36:08;6.07;;;5.40;;
19280;SDS011;9774;52.034;5.342;2024-01-30T06:38:35;5.50;;;4.60;;
19280;SDS011;9774;52.034;5.342;2024-01-30T06:41:03;6.07;;;4.95;;
19280;SDS011;9774;52.034;5.342;2024-01-30T06:43:30;6.30;;;5.20;;
19280;SDS011;9774;52.034;5.342;2024-01-30T06:45:58;6.95;;;5.50;;
19280;SDS011;9774;52.034;5.342;2024-01-30T06:48:25;6.53;;;5.00;;
19280;SDS011;9774;52.034;5.342;2024-01-30T06:50:53;6.60;;;5.13;;
19280;SDS011;9774;52.034;5.342;2024-01-30T06:53:20;6.82;;;5.13;;
19280;SDS011;9774;52.034;5.342;2024-01-30T06:55:47;7.45;;;4.82;;
19280;SDS011;9774;52.034;5.342;2024-01-30T06:58:15;5.75;;;4.80;;
19280;SDS011;9774;52.034;5.342;2024-01-30T07:00:42;6.85;;;5.45;;
19280;SDS011;9774;52.034;5.342;2024-01-30T07:03:09;6.32;;;5.20;;
19280;SDS011;9774;52.034;5.342;2024-01-30T07:05:36;8.45;;;4.85;;
19280;SDS011;9774;52.034;5.342;2024-01-30T07:08:03;9.00;;;5.10;;
19280;SDS011;9774;52.034;5.342;2024-01-30T07:10:31;7.38;;;4.80;;
19280;SDS011;9774;52.034;5.342;2024-01-30T07:12:58;5.55;;;5.00;;
19280;SDS011;9774;52.034;5.342;2024-01-30T07:15:28;8.23;;;5.40;;
19280;SDS011;9774;52.034;5.342;2024-01-30T07:17:55;6.93;;;5.45;;
19280;SDS011;9774;52.034;5.342;2024-01-30T07:20:22;6.68;;;5.07;;
19280;SDS011;9774;52.034;5.342;2024-01-30T07:22:49;6.13;;;4.88;;
19280;SDS011;9774;52.034;5.342;2024-01-30T07:25:16;5.97;;;5.05;;
19280;SDS011;9774;52.034;5.342;2024-01-30T07:27:43;6.32;;;4.47;;
19280;SDS011;9774;52.034;5.342;2024-01-30T07:30:10;7.13;;;5.00;;
19280;SDS011;9774;52.034;5.342;2024-01-30T07:32:39;7.80;;;5.20;;
19280;SDS011;9774;52.034;5.342;2024-01-30T07:35:06;6.40;;;4.72;;
19280;SDS011;9774;52.034;5.342;2024-01-30T07:37:34;9.18;;;5.57;;
19280;SDS011;9774;52.034;5.342;2024-01-30T07:40:01;5.80;;;5.15;;
19280;SDS011;9774;52.034;5.342;2024-01-30T07:42:28;7.03;;;5.03;;
19280;SDS011;9774;52.034;5.342;2024-01-30T07:44:55;9.00;;;5.32;;
19280;SDS011;9774;52.034;5.342;2024-01-30T07:47:22;6.72;;;5.05;;
19280;SDS011;9774;52.034;5.342;2024-01-30T07:49:51;6.05;;;5.05;;
19280;SDS011;9774;52.034;5.342;2024-01-30T07:52:19;5.15;;;4.57;;
19280;SDS011;9774;52.034;5.342;2024-01-30T07:54:46;11.95;;;4.97;;
19280;SDS011;9774;52.034;5.342;2024-01-30T07:57:13;6.40;;;4.38;;
19280;SDS011;9774;52.034;5.342;2024-01-30T07:59:41;6.60;;;5.10;;
19280;SDS011;9774;52.034;5.342;2024-01-30T08:02:10;5.85;;;4.65;;
19280;SDS011;9774;52.034;5.342;2024-01-30T08:04:38;5.93;;;4.40;;
19280;SDS011;9774;52.034;5.342;2024-01-30T08:07:06;6.80;;;4.53;;
19280;SDS011;9774;52.034;5.342;2024-01-30T08:09:33;5.80;;;4.45;;
19280;SDS011;9774;52.034;5.342;2024-01-30T08:12:00;8.35;;;5.22;;
19280;SDS011;9774;52.034;5.342;2024-01-30T08:14:27;6.22;;;4.95;;
19280;SDS011;9774;52.034;5.342;2024-01-30T08:16:54;5.32;;;3.95;;
19280;SDS011;9774;52.034;5.342;2024-01-30T08:19:21;5.63;;;4.00;;
19280;SDS011;9774;52.034;5.342;2024-01-30T08:21:48;6.88;;;4.55;;
19280;SDS011;9774;52.034;5.342;2024-01-30T08:24:17;6.35;;;4.28;;
19280;SDS011;9774;52.034;5.342;2024-01-30T08:26:44;6.22;;;4.30;;
19280;SDS011;9774;52.034;5.342;2024-01-30T08:29:11;7.80;;;4.90;;
19280;SDS011;9774;52.034;5.342;2024-01-30T08:31:38;6.32;;;4.57;;
19280;SDS011;9774;52.034;5.342;2024-01-30T08:34:05;7.72;;;4.68;;
19280;SDS011;9774;52.034;5.342;2024-01-30T08:36:32;6.18;;;4.30;;
19280;SDS011;9774;52.034;5.342;2024-01-30T08:38:59;7.28;;;4.70;;
19280;SDS011;9774;52.034;5.342;2024-01-30T08:41:28;6.88;;;4.93;;
19280;SDS011;9774;52.034;5.342;2024-01-30T08:43:55;6.57;;;5.35;;
19280;SDS011;9774;52.034;5.342;2024-01-30T08:46:22;8.20;;;5.38;;
19280;SDS011;9774;52.034;5.342;2024-01-30T08:48:49;6.85;;;4.68;;
19280;SDS011;9774;52.034;5.342;2024-01-30T08:51:16;9.85;;;5.15;;
19280;SDS011;9774;52.034;5.342;2024-01-30T08:53:43;7.68;;;4.55;;
19280;SDS011;9774;52.034;5.342;2024-01-30T08:56:10;6.82;;;4.38;;
19280;SDS011;9774;52.034;5.342;2024-01-30T08:58:38;6.47;;;5.00;;
19280;SDS011;9774;52.034;5.342;2024-01-30T09:01:05;7.60;;;4.80;;
19280;SDS011;9774;52.034;5.342;2024-01-30T09:03:33;9.20;;;5.30;;
19280;SDS011;9774;52.034;5.342;2024-01-30T09:06:00;6.93;;;4.28;;
19280;SDS011;9774;52.034;5.342;2024-01-30T09:08:27;6.80;;;4.47;;
19280;SDS011;9774;52.034;5.342;2024-01-30T09:10:54;9.05;;;4.80;;
19280;SDS011;9774;52.034;5.342;2024-01-30T09:13:21;8.20;;;4.80;;
19280;SDS011;9774;52.034;5.342;2024-01-30T09:15:49;7.50;;;4.72;;
19280;SDS011;9774;52.034;5.342;2024-01-30T09:18:17;6.72;;;4.78;;
19280;SDS011;9774;52.034;5.342;2024-01-30T09:20:45;6.00;;;4.70;;
19280;SDS011;9774;52.034;5.342;2024-01-30T09:23:12;6.60;;;4.95;;
19280;SDS011;9774;52.034;5.342;2024-01-30T09:25:39;10.05;;;5.38;;
19280;SDS011;9774;52.034;5.342;2024-01-30T09:28:06;10.65;;;5.03;;
19280;SDS011;9774;52.034;5.342;2024-01-30T09:30:33;7.85;;;4.75;;
19280;SDS011;9774;52.034;5.342;2024-01-30T09:33:02;8.38;;;5.25;;
19280;SDS011;9774;52.034;5.342;2024-01-30T09:35:29;7.63;;;5.00;;
19280;SDS011;9774;52.034;5.342;2024-01-30T09:37:57;9.70;;;5.15;;
19280;SDS011;9774;52.034;5.342;2024-01-30T09:40:24;10.00;;;5.50;;
19280;SDS011;9774;52.034;5.342;2024-01-30T09:42:51;7.22;;;5.25;;
19280;SDS011;9774;52.034;5.342;2024-01-30T09:45:20;7.72;;;4.90;;
19280;SDS011;9774;52.034;5.342;2024-01-30T09:47:51;8.55;;;5.15;;
19280;SDS011;9774;52.034;5.342;2024-01-30T09:50:21;7.30;;;4.97;;
19280;SDS011;9774;52.034;5.342;2024-01-30T09:52:48;7.72;;;4.47;;
19280;SDS011;9774;52.034;5.342;2024-01-30T09:55:16;8.63;;;4.82;;
19280;SDS011;9774;52.034;5.342;2024-01-30T09:57:43;5.82;;;4.80;;
19280;SDS011;9774;52.034;5.342;2024-01-30T10:00:11;6.78;;;4.90;;
19280;SDS011;9774;52.034;5.342;2024-01-30T10:02:41;7.93;;;5.50;;
19280;SDS011;9774;52.034;5.342;2024-01-30T10:05:09;9.43;;;5.68;;
19280;SDS011;9774;52.034;5.342;2024-01-30T10:07:52;6.50;;;4.45;;
19280;SDS011;9774;52.034;5.342;2024-01-30T10:10:21;6.40;;;4.75;;
19280;SDS011;9774;52.034;5.342;2024-01-30T10:12:49;7.57;;;4.97;;
19280;SDS011;9774;52.034;5.342;2024-01-30T10:15:16;8.13;;;4.70;;
19280;SDS011;9774;52.034;5.342;2024-01-30T10:17:44;6.72;;;4.72;;
19280;SDS011;9774;52.034;5.342;2024-01-30T10:20:12;6.45;;;4.95;;
19280;SDS011;9774;52.034;5.342;2024-01-30T10:22:39;7.82;;;5.05;;
19280;SDS011;9774;52.034;5.342;2024-01-30T10:25:10;7.72;;;5.60;;
19280;SDS011;9774;52.034;5.342;2024-01-30T10:27:39;6.70;;;5.07;;
19280;SDS011;9774;52.034;5.342;2024-01-30T10:30:06;5.97;;;4.93;;
19280;SDS011;9774;52.034;5.342;2024-01-30T10:32:34;7.35;;;4.65;;
19280;SDS011;9774;52.034;5.342;2024-01-30T10:35:01;8.10;;;4.97;;
19280;SDS011;9774;52.034;5.342;2024-01-30T10:37:29;7.95;;;5.22;;
19280;SDS011;9774;52.034;5.342;2024-01-30T10:39:58;7.03;;;4.90;;
19280;SDS011;9774;52.034;5.342;2024-01-30T10:42:32;9.90;;;5.20;;
19280;SDS011;9774;52.034;5.342;2024-01-30T10:45:00;6.82;;;4.47;;
19280;SDS011;9774;52.034;5.342;2024-01-30T10:47:33;8.32;;;5.28;;
19280;SDS011;9774;52.034;5.342;2024-01-30T10:50:02;7.40;;;4.55;;
19280;SDS011;9774;52.034;5.342;2024-01-30T10:52:30;8.32;;;5.18;;
19280;SDS011;9774;52.034;5.342;2024-01-30T10:54:58;10.00;;;5.05;;
19280;SDS011;9774;52.034;5.342;2024-01-30T10:57:26;6.30;;;4.68;;
19280;SDS011;9774;52.034;5.342;2024-01-30T10:59:57;8.73;;;4.65;;
19280;SDS011;9774;52.034;5.342;2024-01-30T11:02:26;9.93;;;4.78;;
19280;SDS011;9774;52.034;5.342;2024-01-30T11:04:55;7.38;;;4.88;;
19280;SDS011;9774;52.034;5.342;2024-01-30T11:07:25;5.97;;;4.75;;
19280;SDS011;9774;52.034;5.342;2024-01-30T11:09:59;5.78;;;5.05;;
19280;SDS011;9774;52.034;5.342;2024-01-30T11:12:29;7.15;;;4.10;;
19280;SDS011;9774;52.034;5.342;2024-01-30T11:15:04;4.88;;;3.63;;
19280;SDS011;9774;52.034;5.342;2024-01-30T11:17:43;6.18;;;3.88;;
19280;SDS011;9774;52.034;5.342;2024-01-30T11:20:14;6.60;;;3.55;;
19280;SDS011;9774;52.034;5.342;2024-01-30T11:22:44;5.65;;;3.15;;
19280;SDS011;9774;52.034;5.342;2024-01-30T11:25:13;6.10;;;3.03;;
19280;SDS011;9774;52.034;5.342;2024-01-30T11:27:42;5.50;;;2.97;;
19280;SDS011;9774;52.034;5.342;2024-01-30T11:30:11;5.70;;;2.28;;
19280;SDS011;9774;52.034;5.342;2024-01-30T11:32:57;3.78;;;2.55;;
19280;SDS011;9774;52.034;5.342;2024-01-30T11:35:27;4.50;;;2.47;;
19280;SDS011;9774;52.034;5.342;2024-01-30T11:37:58;4.07;;;2.30;;
19280;SDS011;9774;52.034;5.342;2024-01-30T11:40:27;6.40;;;2.75;;
19280;SDS011;9774;52.034;5.342;2024-01-30T11:42:55;5.95;;;2.22;;
19280;SDS011;9774;52.034;5.342;2024-01-30T11:45:26;5.35;;;2.45;;
19280;SDS011;9774;52.034;5.342;2024-01-30T11:47:54;3.85;;;1.83;;
19280;SDS011;9774;52.034;5.342;2024-01-30T11:50:22;4.40;;;1.70;;
19280;SDS011;9774;52.034;5.342;2024-01-30T11:52:49;3.25;;;1.55;;
19280;SDS011;9774;52.034;5.342;2024-01-30T11:55:16;2.88;;;1.45;;
19280;SDS011;9774;52.034;5.342;2024-01-30T11:57:44;7.38;;;1.02;;
19280;SDS011;9774;52.034;5.342;2024-01-30T12:00:15;4.90;;;1.00;;
19280;SDS011;9774;52.034;5.342;2024-01-30T12:02:48;2.58;;;1.15;;
19280;SDS011;9774;52.034;5.342;2024-01-30T12:05:18;2.42;;;0.75;;
19280;SDS011;9774;52.034;5.342;2024-01-30T12:07:46;3.40;;;1.20;;
19280;SDS011;9774;52.034;5.342;2024-01-30T12:10:13;1.92;;;0.90;;
19280;SDS011;9774;52.034;5.342;2024-01-30T12:12:41;3.55;;;1.67;;
19280;SDS011;9774;52.034;5.342;2024-01-30T12:15:11;1.77;;;1.15;;
19280;SDS011;9774;52.034;5.342;2024-01-30T12:17:39;3.95;;;1.35;;
19280;SDS011;9774;52.034;5.342;2024-01-30T12:20:09;2.53;;;1.50;;
19280;SDS011;9774;52.034;5.342;2024-01-30T12:22:39;3.42;;;1.52;;
19280;SDS011;9774;52.034;5.342;2024-01-30T12:25:08;3.42;;;1.58;;
19280;SDS011;9774;52.034;5.342;2024-01-30T12:27:36;3.25;;;1.35;;
19280;SDS011;9774;52.034;5.342;2024-01-30T12:30:05;5.53;;;1.77;;
19280;SDS011;9774;52.034;5.342;2024-01-30T12:32:34;6.18;;;1.83;;
19280;SDS011;9774;52.034;5.342;2024-01-30T12:35:02;1.50;;;1.23;;
19280;SDS011;9774;52.034;5.342;2024-01-30T12:37:31;2.17;;;1.40;;
19280;SDS011;9774;52.034;5.342;2024-01-30T12:39:58;3.45;;;1.90;;
19280;SDS011;9774;52.034;5.342;2024-01-30T12:42:26;5.50;;;1.50;;
19280;SDS011;9774;52.034;5.342;2024-01-30T12:44:54;2.88;;;1.42;;
19280;SDS011;9774;52.034;5.342;2024-01-30T12:47:23;5.32;;;1.55;;
19280;SDS011;9774;52.034;5.342;2024-01-30T12:49:50;3.80;;;1.80;;
19280;SDS011;9774;52.034;5.342;2024-01-30T12:52:18;3.80;;;1.42;;
19280;SDS011;9774;52.034;5.342;2024-01-30T12:54:48;5.22;;;1.35;;
19280;SDS011;9774;52.034;5.342;2024-01-30T12:57:15;4.05;;;0.93;;
19280;SDS011;9774;52.034;5.342;2024-01-30T12:59:43;2.13;;;0.90;;
19280;SDS011;9774;52.034;5.342;2024-01-30T13:02:11;4.13;;;1.27;;
19280;SDS011;9774;52.034;5.342;2024-01-30T13:04:39;4.40;;;1.08;;
19280;SDS011;9774;52.034;5.342;2024-01-30T13:07:06;2.28;;;1.00;;
19280;SDS011;9774;52.034;5.342;2024-01-30T13:09:33;3.58;;;0.80;;
19280;SDS011;9774;52.034;5.342;2024-01-30T13:12:02;2.45;;;1.63;;
19280;SDS011;9774;52.034;5.342;2024-01-30T13:14:29;3.17;;;1.17;;
19280;SDS011;9774;52.034;5.342;2024-01-30T13:16:56;4.70;;;1.85;;
19280;SDS011;9774;52.034;5.342;2024-01-30T13:19:24;6.13;;;2.10;;
19280;SDS011;9774;52.034;5.342;2024-01-30T13:21:51;3.58;;;1.92;;
19280;SDS011;9774;52.034;5.342;2024-01-30T13:24:18;2.53;;;1.92;;
19280;SDS011;9774;52.034;5.342;2024-01-30T13:26:46;3.63;;;1.88;;
19280;SDS011;9774;52.034;5.342;2024-01-30T13:29:15;2.35;;;1.60;;
19280;SDS011;9774;52.034;5.342;2024-01-30T13:31:43;3.70;;;1.40;;
19280;SDS011;9774;52.034;5.342;2024-01-30T13:34:11;3.10;;;1.10;;
19280;SDS011;9774;52.034;5.342;2024-01-30T13:36:39;1.23;;;0.60;;
19280;SDS011;9774;52.034;5.342;2024-01-30T13:39:06;1.95;;;0.80;;
19280;SDS011;9774;52.034;5.342;2024-01-30T13:41:35;1.33;;;0.60;;
19280;SDS011;9774;52.034;5.342;2024-01-30T13:44:03;2.20;;;0.65;;
19280;SDS011;9774;52.034;5.342;2024-01-30T13:46:31;0.80;;;0.30;;
19280;SDS011;9774;52.034;5.342;2024-01-30T13:48:58;1.38;;;0.35;;
19280;SDS011;9774;52.034;5.342;2024-01-30T13:51:25;2.38;;;0.50;;
19280;SDS011;9774;52.034;5.342;2024-01-30T13:53:52;0.68;;;0.30;;
19280;SDS011;9774;52.034;5.342;2024-01-30T13:56:19;1.02;;;0.20;;
19280;SDS011;9774;52.034;5.342;2024-01-30T13:58:47;1.23;;;0.30;;
19280;SDS011;9774;52.034;5.342;2024-01-30T14:01:15;0.82;;;0.40;;
19280;SDS011;9774;52.034;5.342;2024-01-30T14:03:43;2.17;;;0.70;;
19280;SDS011;9774;52.034;5.342;2024-01-30T14:06:10;0.77;;;0.30;;
19280;SDS011;9774;52.034;5.342;2024-01-30T14:08:38;0.80;;;0.38;;
19280;SDS011;9774;52.034;5.342;2024-01-30T14:11:05;3.03;;;1.10;;
19280;SDS011;9774;52.034;5.342;2024-01-30T14:13:32;2.88;;;0.60;;
19280;SDS011;9774;52.034;5.342;2024-01-30T14:15:59;3.65;;;0.80;;
19280;SDS011;9774;52.034;5.342;2024-01-30T14:18:26;1.20;;;0.70;;
19280;SDS011;9774;52.034;5.342;2024-01-30T14:20:55;2.42;;;1.00;;
19280;SDS011;9774;52.034;5.342;2024-01-30T14:23:22;3.50;;;0.85;;
19280;SDS011;9774;52.034;5.342;2024-01-30T14:25:49;2.08;;;0.90;;
19280;SDS011;9774;52.034;5.342;2024-01-30T14:28:17;2.85;;;0.95;;
19280;SDS011;9774;52.034;5.342;2024-01-30T14:30:44;3.85;;;0.80;;
19280;SDS011;9774;52.034;5.342;2024-01-30T14:33:12;1.85;;;0.90;;
19280;SDS011;9774;52.034;5.342;2024-01-30T14:35:39;3.80;;;0.80;;
19280;SDS011;9774;52.034;5.342;2024-01-30T14:38:07;1.70;;;0.45;;
19280;SDS011;9774;52.034;5.342;2024-01-30T14:40:34;2.83;;;1.05;;
19280;SDS011;9774;52.034;5.342;2024-01-30T14:43:02;3.25;;;0.60;;
19280;SDS011;9774;52.034;5.342;2024-01-30T14:45:29;1.95;;;0.60;;
19280;SDS011;9774;52.034;5.342;2024-01-30T14:47:57;2.33;;;0.70;;
19280;SDS011;9774;52.034;5.342;2024-01-30T14:50:25;1.10;;;0.60;;
19280;SDS011;9774;52.034;5.342;2024-01-30T14:52:53;2.00;;;0.57;;
19280;SDS011;9774;52.034;5.342;2024-01-30T14:55:21;2.83;;;0.75;;
19280;SDS011;9774;52.034;5.342;2024-01-30T14:57:49;4.10;;;0.65;;
19280;SDS011;9774;52.034;5.342;2024-01-30T15:00:16;1.75;;;0.85;;
19280;SDS011;9774;52.034;5.342;2024-01-30T15:02:44;2.83;;;0.70;;